sensor_id;sensor_type;location;lat;lon;timestamp;P1;durP1;ratioP1;P2;durP2;ratioP2
38717;SDS011;24468;52.128;9.278;2023-12-20T00:00:40;4.72;;;4.25;;
38717;SDS011;24468;52.128;9.278;2023-12-20T00:03:05;7.85;;;4.30;;
38717;SDS011;24468;52.128;9.278;2023-12-20T00:05:31;5.32;;;4.03;;
38717;SDS011;24468;52.128;9.278;2023-12-20T00:07:57;4.78;;;3.95;;
38717;SDS011;24468;52.128;9.278;2023-12-20T00:10:23;4.65;;;4.00;;
38717;SDS011;24468;52.128;9.278;2023-12-20T00:12:48;4.80;;;4.30;;
38717;SDS011;24468;52.128;9.278;2023-12-20T00:15:14;6.00;;;4.68;;
38717;SDS011;24468;52.128;9.278;2023-12-20T00:17:39;5.85;;;4.38;;
38717;SDS011;24468;52.128;9.278;2023-12-20T00:20:05;6.55;;;5.05;;
38717;SDS011;24468;52.128;9.278;2023-12-20T00:22:32;4.95;;;4.45;;
38717;SDS011;24468;52.128;9.278;2023-12-20T00:24:57;6.28;;;4.45;;
38717;SDS011;24468;52.128;9.278;2023-12-20T00:27:23;4.95;;;4.45;;
38717;SDS011;24468;52.128;9.278;2023-12-20T00:29:48;6.47;;;4.03;;
38717;SDS011;24468;52.128;9.278;2023-12-20T00:32:15;7.25;;;4.95;;
38717;SDS011;24468;52.128;9.278;2023-12-20T00:34:41;8.40;;;4.20;;
38717;SDS011;24468;52.128;9.278;2023-12-20T00:37:08;7.53;;;4.22;;
38717;SDS011;24468;52.128;9.278;2023-12-20T00:39:33;6.05;;;4.40;;
38717;SDS011;24468;52.128;9.278;2023-12-20T00:41:59;6.63;;;4.65;;
38717;SDS011;24468;52.128;9.278;2023-12-20T00:44:25;9.55;;;4.10;;
38717;SDS011;24468;52.128;9.278;2023-12-20T00:46:50;5.13;;;4.38;;
38717;SDS011;24468;52.128;9.278;2023-12-20T00:49:16;6.68;;;4.18;;
38717;SDS011;24468;52.128;9.278;2023-12-20T00:51:41;5.78;;;4.15;;
38717;SDS011;24468;52.128;9.278;2023-12-20T00:54:07;5.95;;;3.80;;
38717;SDS011;24468;52.128;9.278;2023-12-20T00:56:33;8.50;;;3.55;;
38717;SDS011;24468;52.128;9.278;2023-12-20T00:58:58;5.22;;;3.20;;
38717;SDS011;24468;52.128;9.278;2023-12-20T01:01:24;5.57;;;2.88;;
38717;SDS011;24468;52.128;9.278;2023-12-20T01:03:49;7.97;;;2.60;;
38717;SDS011;24468;52.128;9.278;2023-12-20T01:06:16;11.43;;;3.60;;
38717;SDS011;24468;52.128;9.278;2023-12-20T01:08:42;2.75;;;2.00;;
38717;SDS011;24468;52.128;9.278;2023-12-20T01:11:07;9.70;;;2.53;;
38717;SDS011;24468;52.128;9.278;2023-12-20T01:13:33;4.80;;;2.33;;
38717;SDS011;24468;52.128;9.278;2023-12-20T01:15:58;13.00;;;2.70;;
38717;SDS011;24468;52.128;9.278;2023-12-20T01:18:24;6.00;;;1.98;;
38717;SDS011;24468;52.128;9.278;2023-12-20T01:20:50;5.35;;;2.70;;
38717;SDS011;24468;52.128;9.278;2023-12-20T01:23:15;8.35;;;2.83;;
38717;SDS011;24468;52.128;9.278;2023-12-20T01:25:41;5.57;;;2.28;;
38717;SDS011;24468;52.128;9.278;2023-12-20T01:28:06;4.90;;;1.95;;
38717;SDS011;24468;52.128;9.278;2023-12-20T01:30:32;8.80;;;2.63;;
38717;SDS011;24468;52.128;9.278;2023-12-20T01:32:59;6.47;;;2.13;;
38717;SDS011;24468;52.128;9.278;2023-12-20T01:35:26;9.10;;;2.53;;
38717;SDS011;24468;52.128;9.278;2023-12-20T01:37:52;4.68;;;2.28;;
38717;SDS011;24468;52.128;9.278;2023-12-20T01:40:21;6.22;;;2.58;;
38717;SDS011;24468;52.128;9.278;2023-12-20T01:42:47;10.02;;;2.42;;
38717;SDS011;24468;52.128;9.278;2023-12-20T01:45:22;5.13;;;1.92;;
38717;SDS011;24468;52.128;9.278;2023-12-20T01:47:48;7.65;;;2.10;;
38717;SDS011;24468;52.128;9.278;2023-12-20T01:50:14;5.38;;;2.42;;
38717;SDS011;24468;52.128;9.278;2023-12-20T01:52:41;6.07;;;1.63;;
38717;SDS011;24468;52.128;9.278;2023-12-20T01:55:08;6.80;;;2.10;;
38717;SDS011;24468;52.128;9.278;2023-12-20T01:57:38;7.95;;;1.90;;
38717;SDS011;24468;52.128;9.278;2023-12-20T02:00:06;8.65;;;1.63;;
38717;SDS011;24468;52.128;9.278;2023-12-20T02:02:34;3.40;;;1.60;;
38717;SDS011;24468;52.128;9.278;2023-12-20T02:05:03;11.30;;;3.05;;
38717;SDS011;24468;52.128;9.278;2023-12-20T02:07:30;4.20;;;1.60;;
38717;SDS011;24468;52.128;9.278;2023-12-20T02:09:56;5.20;;;2.13;;
38717;SDS011;24468;52.128;9.278;2023-12-20T02:12:22;6.03;;;2.50;;
38717;SDS011;24468;52.128;9.278;2023-12-20T02:14:48;5.50;;;1.50;;
38717;SDS011;24468;52.128;9.278;2023-12-20T02:17:14;3.90;;;1.58;;
38717;SDS011;24468;52.128;9.278;2023-12-20T02:19:41;8.18;;;2.33;;
38717;SDS011;24468;52.128;9.278;2023-12-20T02:22:12;4.70;;;1.45;;
38717;SDS011;24468;52.128;9.278;2023-12-20T02:24:40;3.50;;;1.42;;
38717;SDS011;24468;52.128;9.278;2023-12-20T02:27:06;5.97;;;1.75;;
38717;SDS011;24468;52.128;9.278;2023-12-20T02:29:33;4.82;;;1.50;;
38717;SDS011;24468;52.128;9.278;2023-12-20T02:32:00;6.75;;;1.50;;
38717;SDS011;24468;52.128;9.278;2023-12-20T02:34:26;7.65;;;1.92;;
38717;SDS011;24468;52.128;9.278;2023-12-20T02:36:52;3.38;;;1.33;;
38717;SDS011;24468;52.128;9.278;2023-12-20T02:39:18;4.88;;;1.67;;
38717;SDS011;24468;52.128;9.278;2023-12-20T02:41:45;3.50;;;1.83;;
38717;SDS011;24468;52.128;9.278;2023-12-20T02:44:11;7.60;;;1.63;;
38717;SDS011;24468;52.128;9.278;2023-12-20T02:46:36;5.00;;;1.80;;
38717;SDS011;24468;52.128;9.278;2023-12-20T02:49:01;4.53;;;1.27;;
38717;SDS011;24468;52.128;9.278;2023-12-20T02:51:27;8.32;;;1.92;;
38717;SDS011;24468;52.128;9.278;2023-12-20T02:53:53;5.95;;;1.25;;
38717;SDS011;24468;52.128;9.278;2023-12-20T02:56:18;4.95;;;1.40;;
38717;SDS011;24468;52.128;9.278;2023-12-20T02:58:44;9.30;;;1.90;;
38717;SDS011;24468;52.128;9.278;2023-12-20T03:01:09;6.53;;;1.40;;
38717;SDS011;24468;52.128;9.278;2023-12-20T03:03:35;7.65;;;1.60;;
38717;SDS011;24468;52.128;9.278;2023-12-20T03:06:00;8.32;;;1.50;;
38717;SDS011;24468;52.128;9.278;2023-12-20T03:08:26;9.55;;;1.63;;
38717;SDS011;24468;52.128;9.278;2023-12-20T03:10:51;8.15;;;1.42;;
38717;SDS011;24468;52.128;9.278;2023-12-20T03:13:18;4.32;;;1.23;;
38717;SDS011;24468;52.128;9.278;2023-12-20T03:15:44;3.10;;;1.30;;
38717;SDS011;24468;52.128;9.278;2023-12-20T03:18:10;8.27;;;1.60;;
38717;SDS011;24468;52.128;9.278;2023-12-20T03:20:36;5.03;;;1.48;;
38717;SDS011;24468;52.128;9.278;2023-12-20T03:23:01;6.72;;;2.00;;
38717;SDS011;24468;52.128;9.278;2023-12-20T03:25:27;7.82;;;1.67;;
38717;SDS011;24468;52.128;9.278;2023-12-20T03:27:53;1.88;;;1.02;;
38717;SDS011;24468;52.128;9.278;2023-12-20T03:30:21;2.55;;;1.20;;
38717;SDS011;24468;52.128;9.278;2023-12-20T03:32:46;10.45;;;1.65;;
38717;SDS011;24468;52.128;9.278;2023-12-20T03:35:12;8.68;;;1.88;;
38717;SDS011;24468;52.128;9.278;2023-12-20T03:37:38;3.72;;;1.42;;
38717;SDS011;24468;52.128;9.278;2023-12-20T03:40:04;4.60;;;1.27;;
38717;SDS011;24468;52.128;9.278;2023-12-20T03:42:30;6.95;;;1.80;;
38717;SDS011;24468;52.128;9.278;2023-12-20T03:44:55;5.68;;;1.20;;
38717;SDS011;24468;52.128;9.278;2023-12-20T03:47:21;6.65;;;2.63;;
38717;SDS011;24468;52.128;9.278;2023-12-20T03:49:47;6.22;;;2.17;;
38717;SDS011;24468;52.128;9.278;2023-12-20T03:52:12;12.45;;;2.15;;
38717;SDS011;24468;52.128;9.278;2023-12-20T03:54:38;12.70;;;3.40;;
38717;SDS011;24468;52.128;9.278;2023-12-20T03:57:04;12.00;;;2.13;;
38717;SDS011;24468;52.128;9.278;2023-12-20T03:59:29;9.70;;;1.88;;
38717;SDS011;24468;52.128;9.278;2023-12-20T04:01:59;4.00;;;1.50;;
38717;SDS011;24468;52.128;9.278;2023-12-20T04:04:25;6.38;;;1.75;;
38717;SDS011;24468;52.128;9.278;2023-12-20T04:06:50;4.97;;;1.90;;
38717;SDS011;24468;52.128;9.278;2023-12-20T04:09:16;11.43;;;3.05;;
38717;SDS011;24468;52.128;9.278;2023-12-20T04:11:42;9.23;;;2.63;;
38717;SDS011;24468;52.128;9.278;2023-12-20T04:14:07;7.28;;;2.20;;
38717;SDS011;24468;52.128;9.278;2023-12-20T04:16:32;10.70;;;1.92;;
38717;SDS011;24468;52.128;9.278;2023-12-20T04:18:58;13.57;;;1.98;;
38717;SDS011;24468;52.128;9.278;2023-12-20T04:21:24;7.38;;;2.53;;
38717;SDS011;24468;52.128;9.278;2023-12-20T04:23:49;9.02;;;2.42;;
38717;SDS011;24468;52.128;9.278;2023-12-20T04:26:15;4.25;;;1.83;;
38717;SDS011;24468;52.128;9.278;2023-12-20T04:28:40;10.50;;;2.25;;
38717;SDS011;24468;52.128;9.278;2023-12-20T04:31:06;7.25;;;2.28;;
38717;SDS011;24468;52.128;9.278;2023-12-20T04:33:31;8.95;;;2.40;;
38717;SDS011;24468;52.128;9.278;2023-12-20T04:35:57;7.07;;;1.70;;
38717;SDS011;24468;52.128;9.278;2023-12-20T04:38:23;8.68;;;2.38;;
38717;SDS011;24468;52.128;9.278;2023-12-20T04:40:49;8.50;;;2.28;;
38717;SDS011;24468;52.128;9.278;2023-12-20T04:43:14;6.03;;;2.40;;
38717;SDS011;24468;52.128;9.278;2023-12-20T04:45:40;7.22;;;2.40;;
38717;SDS011;24468;52.128;9.278;2023-12-20T04:48:05;11.57;;;2.70;;
38717;SDS011;24468;52.128;9.278;2023-12-20T04:50:31;10.18;;;2.33;;
38717;SDS011;24468;52.128;9.278;2023-12-20T04:52:57;8.52;;;2.15;;
38717;SDS011;24468;52.128;9.278;2023-12-20T04:55:22;9.93;;;2.50;;
38717;SDS011;24468;52.128;9.278;2023-12-20T04:57:48;9.10;;;4.43;;
38717;SDS011;24468;52.128;9.278;2023-12-20T05:00:13;7.80;;;3.10;;
38717;SDS011;24468;52.128;9.278;2023-12-20T05:02:40;8.70;;;3.15;;
38717;SDS011;24468;52.128;9.278;2023-12-20T05:05:06;13.80;;;3.33;;
38717;SDS011;24468;52.128;9.278;2023-12-20T05:07:32;9.25;;;3.22;;
38717;SDS011;24468;52.128;9.278;2023-12-20T05:09:58;9.05;;;2.72;;
38717;SDS011;24468;52.128;9.278;2023-12-20T05:12:23;9.13;;;3.08;;
38717;SDS011;24468;52.128;9.278;2023-12-20T05:14:49;16.02;;;3.67;;
38717;SDS011;24468;52.128;9.278;2023-12-20T05:17:16;12.57;;;2.90;;
38717;SDS011;24468;52.128;9.278;2023-12-20T05:19:42;10.77;;;2.88;;
38717;SDS011;24468;52.128;9.278;2023-12-20T05:22:07;11.55;;;3.70;;
38717;SDS011;24468;52.128;9.278;2023-12-20T05:24:33;10.07;;;3.63;;
38717;SDS011;24468;52.128;9.278;2023-12-20T05:26:58;9.95;;;3.33;;
38717;SDS011;24468;52.128;9.278;2023-12-20T05:29:24;12.88;;;3.28;;
38717;SDS011;24468;52.128;9.278;2023-12-20T05:31:49;8.05;;;2.55;;
38717;SDS011;24468;52.128;9.278;2023-12-20T05:34:15;10.70;;;4.03;;
38717;SDS011;24468;52.128;9.278;2023-12-20T05:36:40;16.52;;;6.88;;
38717;SDS011;24468;52.128;9.278;2023-12-20T05:39:06;14.63;;;6.30;;
38717;SDS011;24468;52.128;9.278;2023-12-20T05:41:32;11.05;;;4.60;;
38717;SDS011;24468;52.128;9.278;2023-12-20T05:43:58;16.88;;;5.13;;
38717;SDS011;24468;52.128;9.278;2023-12-20T05:46:24;14.07;;;4.32;;
38717;SDS011;24468;52.128;9.278;2023-12-20T05:48:50;9.55;;;3.72;;
38717;SDS011;24468;52.128;9.278;2023-12-20T05:51:16;12.48;;;3.78;;
38717;SDS011;24468;52.128;9.278;2023-12-20T05:53:42;12.27;;;4.10;;
38717;SDS011;24468;52.128;9.278;2023-12-20T05:56:09;10.70;;;2.80;;
38717;SDS011;24468;52.128;9.278;2023-12-20T05:58:35;15.07;;;3.75;;
38717;SDS011;24468;52.128;9.278;2023-12-20T06:01:04;12.70;;;3.42;;
38717;SDS011;24468;52.128;9.278;2023-12-20T06:03:30;11.38;;;3.65;;
38717;SDS011;24468;52.128;9.278;2023-12-20T06:05:56;12.95;;;3.53;;
38717;SDS011;24468;52.128;9.278;2023-12-20T06:08:22;12.20;;;4.47;;
38717;SDS011;24468;52.128;9.278;2023-12-20T06:10:48;10.57;;;2.53;;
38717;SDS011;24468;52.128;9.278;2023-12-20T06:13:14;9.05;;;2.50;;
38717;SDS011;24468;52.128;9.278;2023-12-20T06:15:39;20.92;;;4.55;;
38717;SDS011;24468;52.128;9.278;2023-12-20T06:18:05;12.40;;;2.42;;
38717;SDS011;24468;52.128;9.278;2023-12-20T06:20:32;12.23;;;3.63;;
38717;SDS011;24468;52.128;9.278;2023-12-20T06:22:58;8.73;;;2.90;;
38717;SDS011;24468;52.128;9.278;2023-12-20T06:25:23;7.82;;;3.45;;
38717;SDS011;24468;52.128;9.278;2023-12-20T06:27:49;9.40;;;2.83;;
38717;SDS011;24468;52.128;9.278;2023-12-20T06:30:15;8.30;;;2.97;;
38717;SDS011;24468;52.128;9.278;2023-12-20T06:32:41;13.63;;;3.00;;
38717;SDS011;24468;52.128;9.278;2023-12-20T06:35:07;10.80;;;2.92;;
38717;SDS011;24468;52.128;9.278;2023-12-20T06:37:34;10.80;;;4.30;;
38717;SDS011;24468;52.128;9.278;2023-12-20T06:40:00;13.77;;;3.38;;
38717;SDS011;24468;52.128;9.278;2023-12-20T06:42:26;11.45;;;4.25;;
38717;SDS011;24468;52.128;9.278;2023-12-20T06:44:52;8.60;;;3.97;;
38717;SDS011;24468;52.128;9.278;2023-12-20T06:47:17;13.00;;;6.72;;
38717;SDS011;24468;52.128;9.278;2023-12-20T06:49:43;10.10;;;3.78;;
38717;SDS011;24468;52.128;9.278;2023-12-20T06:52:08;12.93;;;3.67;;
38717;SDS011;24468;52.128;9.278;2023-12-20T06:54:34;12.38;;;4.15;;
38717;SDS011;24468;52.128;9.278;2023-12-20T06:57:00;12.48;;;3.13;;
38717;SDS011;24468;52.128;9.278;2023-12-20T06:59:27;9.50;;;3.33;;
38717;SDS011;24468;52.128;9.278;2023-12-20T07:01:53;11.18;;;2.90;;
38717;SDS011;24468;52.128;9.278;2023-12-20T07:04:19;11.65;;;3.25;;
38717;SDS011;24468;52.128;9.278;2023-12-20T07:06:46;12.77;;;3.90;;
38717;SDS011;24468;52.128;9.278;2023-12-20T07:09:13;8.13;;;3.17;;
38717;SDS011;24468;52.128;9.278;2023-12-20T07:11:39;12.13;;;3.00;;
38717;SDS011;24468;52.128;9.278;2023-12-20T07:14:04;15.80;;;3.75;;
38717;SDS011;24468;52.128;9.278;2023-12-20T07:16:30;10.63;;;3.42;;
38717;SDS011;24468;52.128;9.278;2023-12-20T07:18:56;10.68;;;3.10;;
38717;SDS011;24468;52.128;9.278;2023-12-20T07:21:22;9.93;;;3.47;;
38717;SDS011;24468;52.128;9.278;2023-12-20T07:23:47;12.70;;;3.55;;
38717;SDS011;24468;52.128;9.278;2023-12-20T07:26:13;16.48;;;4.43;;
38717;SDS011;24468;52.128;9.278;2023-12-20T07:28:39;17.60;;;5.25;;
38717;SDS011;24468;52.128;9.278;2023-12-20T07:31:05;14.27;;;3.83;;
38717;SDS011;24468;52.128;9.278;2023-12-20T07:33:31;8.30;;;3.17;;
38717;SDS011;24468;52.128;9.278;2023-12-20T07:35:56;12.10;;;3.30;;
38717;SDS011;24468;52.128;9.278;2023-12-20T07:38:22;11.85;;;3.90;;
38717;SDS011;24468;52.128;9.278;2023-12-20T07:40:47;10.10;;;3.05;;
38717;SDS011;24468;52.128;9.278;2023-12-20T07:43:13;14.48;;;3.63;;
38717;SDS011;24468;52.128;9.278;2023-12-20T07:45:38;12.02;;;3.20;;
38717;SDS011;24468;52.128;9.278;2023-12-20T07:48:04;9.52;;;4.63;;
38717;SDS011;24468;52.128;9.278;2023-12-20T07:50:31;22.40;;;4.28;;
38717;SDS011;24468;52.128;9.278;2023-12-20T07:52:57;9.70;;;3.78;;
38717;SDS011;24468;52.128;9.278;2023-12-20T07:55:24;10.55;;;3.97;;
38717;SDS011;24468;52.128;9.278;2023-12-20T07:57:50;10.57;;;3.97;;
38717;SDS011;24468;52.128;9.278;2023-12-20T08:00:15;13.82;;;4.00;;
38717;SDS011;24468;52.128;9.278;2023-12-20T08:02:42;16.35;;;4.75;;
38717;SDS011;24468;52.128;9.278;2023-12-20T08:05:08;16.67;;;4.50;;
38717;SDS011;24468;52.128;9.278;2023-12-20T08:07:33;11.43;;;3.60;;
38717;SDS011;24468;52.128;9.278;2023-12-20T08:09:59;13.65;;;4.53;;
38717;SDS011;24468;52.128;9.278;2023-12-20T08:12:25;10.80;;;3.28;;
38717;SDS011;24468;52.128;9.278;2023-12-20T08:14:52;12.35;;;3.55;;
38717;SDS011;24468;52.128;9.278;2023-12-20T08:17:19;9.98;;;4.03;;
38717;SDS011;24468;52.128;9.278;2023-12-20T08:19:44;10.63;;;4.70;;
38717;SDS011;24468;52.128;9.278;2023-12-20T08:22:10;13.23;;;4.00;;
38717;SDS011;24468;52.128;9.278;2023-12-20T08:24:36;8.25;;;2.80;;
38717;SDS011;24468;52.128;9.278;2023-12-20T08:27:02;11.38;;;3.70;;
38717;SDS011;24468;52.128;9.278;2023-12-20T08:29:27;9.50;;;3.50;;
38717;SDS011;24468;52.128;9.278;2023-12-20T08:31:53;7.10;;;2.67;;
38717;SDS011;24468;52.128;9.278;2023-12-20T08:34:21;14.30;;;3.72;;
38717;SDS011;24468;52.128;9.278;2023-12-20T08:36:46;12.65;;;3.40;;
38717;SDS011;24468;52.128;9.278;2023-12-20T08:39:12;12.02;;;3.42;;
38717;SDS011;24468;52.128;9.278;2023-12-20T08:41:37;7.97;;;2.90;;
38717;SDS011;24468;52.128;9.278;2023-12-20T08:44:03;10.88;;;3.17;;
38717;SDS011;24468;52.128;9.278;2023-12-20T08:46:29;8.80;;;2.55;;
38717;SDS011;24468;52.128;9.278;2023-12-20T08:48:54;9.60;;;3.25;;
38717;SDS011;24468;52.128;9.278;2023-12-20T08:51:20;15.82;;;3.20;;
38717;SDS011;24468;52.128;9.278;2023-12-20T08:53:47;15.43;;;3.35;;
38717;SDS011;24468;52.128;9.278;2023-12-20T08:56:14;10.73;;;3.38;;
38717;SDS011;24468;52.128;9.278;2023-12-20T08:58:40;14.00;;;3.30;;
38717;SDS011;24468;52.128;9.278;2023-12-20T09:01:05;12.25;;;3.00;;
38717;SDS011;24468;52.128;9.278;2023-12-20T09:03:32;13.90;;;4.07;;
38717;SDS011;24468;52.128;9.278;2023-12-20T09:05:58;12.45;;;3.70;;
38717;SDS011;24468;52.128;9.278;2023-12-20T09:08:23;13.68;;;3.72;;
38717;SDS011;24468;52.128;9.278;2023-12-20T09:10:49;11.60;;;3.78;;
38717;SDS011;24468;52.128;9.278;2023-12-20T09:13:14;17.67;;;3.95;;
38717;SDS011;24468;52.128;9.278;2023-12-20T09:15:40;11.75;;;3.58;;
38717;SDS011;24468;52.128;9.278;2023-12-20T09:18:05;10.90;;;3.70;;
38717;SDS011;24468;52.128;9.278;2023-12-20T09:20:31;11.52;;;3.50;;
38717;SDS011;24468;52.128;9.278;2023-12-20T09:22:57;25.15;;;3.85;;
38717;SDS011;24468;52.128;9.278;2023-12-20T09:25:23;18.00;;;5.25;;
38717;SDS011;24468;52.128;9.278;2023-12-20T09:27:49;10.10;;;3.22;;
38717;SDS011;24468;52.128;9.278;2023-12-20T09:30:14;12.35;;;3.55;;
38717;SDS011;24468;52.128;9.278;2023-12-20T09:32:40;11.35;;;3.05;;
38717;SDS011;24468;52.128;9.278;2023-12-20T09:35:05;10.70;;;3.50;;
38717;SDS011;24468;52.128;9.278;2023-12-20T09:37:33;18.33;;;3.90;;
38717;SDS011;24468;52.128;9.278;2023-12-20T09:39:59;9.85;;;3.75;;
38717;SDS011;24468;52.128;9.278;2023-12-20T09:42:25;12.27;;;3.63;;
38717;SDS011;24468;52.128;9.278;2023-12-20T09:45:14;12.38;;;3.92;;
38717;SDS011;24468;52.128;9.278;2023-12-20T09:47:42;8.63;;;3.28;;
38717;SDS011;24468;52.128;9.278;2023-12-20T09:50:09;10.02;;;3.42;;
38717;SDS011;24468;52.128;9.278;2023-12-20T09:52:36;11.95;;;3.65;;
38717;SDS011;24468;52.128;9.278;2023-12-20T09:55:04;10.70;;;3.75;;
38717;SDS011;24468;52.128;9.278;2023-12-20T09:57:33;7.95;;;2.90;;
38717;SDS011;24468;52.128;9.278;2023-12-20T09:59:59;15.63;;;3.67;;
38717;SDS011;24468;52.128;9.278;2023-12-20T10:02:24;10.88;;;3.78;;
38717;SDS011;24468;52.128;9.278;2023-12-20T10:04:54;14.70;;;4.43;;
38717;SDS011;24468;52.128;9.278;2023-12-20T10:07:20;7.28;;;3.08;;
38717;SDS011;24468;52.128;9.278;2023-12-20T10:09:47;11.77;;;3.78;;
38717;SDS011;24468;52.128;9.278;2023-12-20T10:12:13;8.65;;;3.50;;
38717;SDS011;24468;52.128;9.278;2023-12-20T10:14:38;12.30;;;4.53;;
38717;SDS011;24468;52.128;9.278;2023-12-20T10:17:05;11.10;;;4.00;;
38717;SDS011;24468;52.128;9.278;2023-12-20T10:19:31;10.52;;;3.72;;
38717;SDS011;24468;52.128;9.278;2023-12-20T10:22:04;11.60;;;3.80;;
38717;SDS011;24468;52.128;9.278;2023-12-20T10:24:30;14.85;;;4.25;;
38717;SDS011;24468;52.128;9.278;2023-12-20T10:27:02;8.65;;;3.58;;
38717;SDS011;24468;52.128;9.278;2023-12-20T10:29:35;11.63;;;4.20;;
38717;SDS011;24468;52.128;9.278;2023-12-20T10:34:51;13.50;;;3.95;;
38717;SDS011;24468;52.128;9.278;2023-12-20T10:37:18;9.75;;;3.92;;
38717;SDS011;24468;52.128;9.278;2023-12-20T10:39:47;13.38;;;4.03;;
38717;SDS011;24468;52.128;9.278;2023-12-20T10:42:17;6.53;;;3.92;;
38717;SDS011;24468;52.128;9.278;2023-12-20T10:44:46;10.45;;;5.07;;
38717;SDS011;24468;52.128;9.278;2023-12-20T10:47:12;11.38;;;4.28;;
38717;SDS011;24468;52.128;9.278;2023-12-20T10:49:38;12.18;;;4.35;;
38717;SDS011;24468;52.128;9.278;2023-12-20T10:52:05;10.02;;;3.83;;
38717;SDS011;24468;52.128;9.278;2023-12-20T10:54:33;10.15;;;3.72;;
38717;SDS011;24468;52.128;9.278;2023-12-20T10:56:59;10.43;;;3.92;;
38717;SDS011;24468;52.128;9.278;2023-12-20T10:59:26;8.65;;;3.55;;
38717;SDS011;24468;52.128;9.278;2023-12-20T11:01:54;11.85;;;3.03;;
38717;SDS011;24468;52.128;9.278;2023-12-20T11:04:23;8.65;;;3.63;;
38717;SDS011;24468;52.128;9.278;2023-12-20T11:10:09;10.63;;;3.00;;
38717;SDS011;24468;52.128;9.278;2023-12-20T11:12:46;12.70;;;3.65;;
38717;SDS011;24468;52.128;9.278;2023-12-20T11:15:19;9.68;;;3.28;;
38717;SDS011;24468;52.128;9.278;2023-12-20T11:17:45;7.90;;;2.80;;
38717;SDS011;24468;52.128;9.278;2023-12-20T11:20:11;11.00;;;5.13;;
38717;SDS011;24468;52.128;9.278;2023-12-20T11:22:37;11.27;;;4.90;;
38717;SDS011;24468;52.128;9.278;2023-12-20T11:25:10;16.98;;;7.28;;
38717;SDS011;24468;52.128;9.278;2023-12-20T11:27:47;22.95;;;9.48;;
38717;SDS011;24468;52.128;9.278;2023-12-20T11:30:41;8.15;;;3.17;;
38717;SDS011;24468;52.128;9.278;2023-12-20T11:33:15;10.50;;;2.97;;
38717;SDS011;24468;52.128;9.278;2023-12-20T11:35:41;9.93;;;2.60;;
38717;SDS011;24468;52.128;9.278;2023-12-20T11:38:11;12.18;;;3.00;;
38717;SDS011;24468;52.128;9.278;2023-12-20T11:40:38;8.77;;;2.45;;
38717;SDS011;24468;52.128;9.278;2023-12-20T11:43:03;9.13;;;2.17;;
38717;SDS011;24468;52.128;9.278;2023-12-20T11:45:30;9.70;;;3.03;;
38717;SDS011;24468;52.128;9.278;2023-12-20T11:47:57;4.43;;;1.55;;
38717;SDS011;24468;52.128;9.278;2023-12-20T11:50:23;7.13;;;1.50;;
38717;SDS011;24468;52.128;9.278;2023-12-20T11:52:49;6.28;;;2.00;;
38717;SDS011;24468;52.128;9.278;2023-12-20T11:55:17;3.03;;;1.30;;
38717;SDS011;24468;52.128;9.278;2023-12-20T11:57:43;6.00;;;2.50;;
38717;SDS011;24468;52.128;9.278;2023-12-20T12:00:09;5.45;;;2.55;;
38717;SDS011;24468;52.128;9.278;2023-12-20T12:02:35;2.75;;;1.35;;
38717;SDS011;24468;52.128;9.278;2023-12-20T12:05:01;11.60;;;2.35;;
38717;SDS011;24468;52.128;9.278;2023-12-20T12:07:30;4.57;;;1.80;;
38717;SDS011;24468;52.128;9.278;2023-12-20T12:09:55;6.45;;;1.92;;
38717;SDS011;24468;52.128;9.278;2023-12-20T12:12:21;9.02;;;1.50;;
38717;SDS011;24468;52.128;9.278;2023-12-20T12:14:48;8.43;;;2.35;;
38717;SDS011;24468;52.128;9.278;2023-12-20T12:17:14;5.18;;;1.92;;
38717;SDS011;24468;52.128;9.278;2023-12-20T12:19:40;10.50;;;2.50;;
38717;SDS011;24468;52.128;9.278;2023-12-20T12:22:10;5.93;;;2.50;;
38717;SDS011;24468;52.128;9.278;2023-12-20T12:24:45;7.30;;;2.17;;
38717;SDS011;24468;52.128;9.278;2023-12-20T12:27:12;7.40;;;2.15;;
38717;SDS011;24468;52.128;9.278;2023-12-20T12:29:38;7.38;;;1.88;;
38717;SDS011;24468;52.128;9.278;2023-12-20T12:32:08;7.90;;;2.00;;
38717;SDS011;24468;52.128;9.278;2023-12-20T12:34:34;2.08;;;0.68;;
38717;SDS011;24468;52.128;9.278;2023-12-20T12:37:01;4.05;;;0.65;;
38717;SDS011;24468;52.128;9.278;2023-12-20T12:39:29;3.78;;;0.63;;
38717;SDS011;24468;52.128;9.278;2023-12-20T12:41:55;4.13;;;0.73;;
38717;SDS011;24468;52.128;9.278;2023-12-20T12:44:22;2.38;;;0.75;;
38717;SDS011;24468;52.128;9.278;2023-12-20T12:46:49;4.18;;;1.00;;
38717;SDS011;24468;52.128;9.278;2023-12-20T12:49:16;3.35;;;0.93;;
38717;SDS011;24468;52.128;9.278;2023-12-20T12:51:42;1.33;;;0.68;;
38717;SDS011;24468;52.128;9.278;2023-12-20T12:54:09;7.13;;;1.42;;
38717;SDS011;24468;52.128;9.278;2023-12-20T12:56:35;2.55;;;0.90;;
38717;SDS011;24468;52.128;9.278;2023-12-20T12:59:01;3.05;;;0.90;;
38717;SDS011;24468;52.128;9.278;2023-12-20T13:01:27;5.75;;;1.65;;
38717;SDS011;24468;52.128;9.278;2023-12-20T13:03:53;3.50;;;1.63;;
38717;SDS011;24468;52.128;9.278;2023-12-20T13:06:19;2.85;;;1.38;;
38717;SDS011;24468;52.128;9.278;2023-12-20T13:08:45;6.07;;;1.70;;
38717;SDS011;24468;52.128;9.278;2023-12-20T13:11:10;5.05;;;1.40;;
38717;SDS011;24468;52.128;9.278;2023-12-20T13:13:36;9.23;;;1.10;;
38717;SDS011;24468;52.128;9.278;2023-12-20T13:16:01;7.35;;;1.33;;
38717;SDS011;24468;52.128;9.278;2023-12-20T13:18:27;3.42;;;1.27;;
38717;SDS011;24468;52.128;9.278;2023-12-20T13:20:53;8.63;;;2.20;;
38717;SDS011;24468;52.128;9.278;2023-12-20T13:23:19;6.22;;;1.63;;
38717;SDS011;24468;52.128;9.278;2023-12-20T13:25:44;6.38;;;1.05;;
38717;SDS011;24468;52.128;9.278;2023-12-20T13:28:13;2.55;;;1.02;;
38717;SDS011;24468;52.128;9.278;2023-12-20T13:30:39;3.40;;;1.10;;
38717;SDS011;24468;52.128;9.278;2023-12-20T13:33:05;13.35;;;4.90;;
38717;SDS011;24468;52.128;9.278;2023-12-20T13:35:31;4.68;;;1.80;;
38717;SDS011;24468;52.128;9.278;2023-12-20T13:37:58;2.80;;;1.20;;
38717;SDS011;24468;52.128;9.278;2023-12-20T13:40:24;4.57;;;1.02;;
38717;SDS011;24468;52.128;9.278;2023-12-20T13:42:49;11.15;;;2.33;;
38717;SDS011;24468;52.128;9.278;2023-12-20T13:45:15;6.95;;;1.60;;
38717;SDS011;24468;52.128;9.278;2023-12-20T13:47:41;3.28;;;0.88;;
38717;SDS011;24468;52.128;9.278;2023-12-20T13:50:07;4.68;;;0.95;;
38717;SDS011;24468;52.128;9.278;2023-12-20T13:52:32;5.35;;;1.20;;
38717;SDS011;24468;52.128;9.278;2023-12-20T13:54:58;6.57;;;1.00;;
38717;SDS011;24468;52.128;9.278;2023-12-20T13:57:23;13.82;;;2.30;;
38717;SDS011;24468;52.128;9.278;2023-12-20T13:59:49;4.50;;;1.35;;
38717;SDS011;24468;52.128;9.278;2023-12-20T14:02:14;3.22;;;1.83;;
38717;SDS011;24468;52.128;9.278;2023-12-20T14:04:41;7.85;;;2.63;;
38717;SDS011;24468;52.128;9.278;2023-12-20T14:07:07;6.75;;;2.17;;
38717;SDS011;24468;52.128;9.278;2023-12-20T14:09:34;5.30;;;1.73;;
38717;SDS011;24468;52.128;9.278;2023-12-20T14:12:00;7.10;;;2.03;;
38717;SDS011;24468;52.128;9.278;2023-12-20T14:14:26;10.93;;;4.65;;
38717;SDS011;24468;52.128;9.278;2023-12-20T14:16:51;8.25;;;3.42;;
38717;SDS011;24468;52.128;9.278;2023-12-20T14:19:17;6.40;;;1.45;;
38717;SDS011;24468;52.128;9.278;2023-12-20T14:21:42;10.57;;;4.28;;
38717;SDS011;24468;52.128;9.278;2023-12-20T14:24:10;6.68;;;1.52;;
38717;SDS011;24468;52.128;9.278;2023-12-20T14:26:39;8.13;;;1.52;;
38717;SDS011;24468;52.128;9.278;2023-12-20T14:29:08;4.97;;;1.25;;
38717;SDS011;24468;52.128;9.278;2023-12-20T14:31:34;6.13;;;1.13;;
38717;SDS011;24468;52.128;9.278;2023-12-20T14:33:59;9.82;;;2.17;;
38717;SDS011;24468;52.128;9.278;2023-12-20T14:36:28;7.85;;;1.58;;
38717;SDS011;24468;52.128;9.278;2023-12-20T14:38:55;5.20;;;1.25;;
38717;SDS011;24468;52.128;9.278;2023-12-20T14:41:21;3.33;;;1.23;;
38717;SDS011;24468;52.128;9.278;2023-12-20T14:43:49;4.35;;;1.70;;